首页
METAR-TAF:

METAR-TAF

机场 :

Campbeltown, 苏格兰

纬度: 55-26-14N, 经度: 005-41-11W, 海拔: 13米

当前天气观测

该预报发布于34分钟前的11:50 UTC
风速18节,风向东转东南
温度 7°C
湿度 81%
气压 1009 hPa
能见度10公里或以上
多云层高于2700英尺
散云层高于4800英尺

METAR: EGEC 191150Z 12018KT 9999 BKN027 SCT048 07/04 Q1009

时间: 12:24 (12:24 UTC)

预报

该预报发布于1小时和25分钟前的10:59 UTC
预报有效从19日的 12点(UTC)到 19日的 18点(UTC)
风速19节,风向东转东南
能见度10公里或以上
散云层高于2000英尺
短暂存在
从 19日的 12点(UTC)到 19日的 18点(UTC)
风速22节,风向东南,有时为32节阵风
能見度: 7000
多云层高于1400英尺
小雨
几率 40% :
短暂存在
从 19日的 15点(UTC)到 19日的 18点(UTC)
多云层高于800英尺

TAF: EGEC 191059Z 1912/1918 12019KT 9999 SCT020 TEMPO 1912/1918 14022G32KT 7000 -RA BKN014 PROB40 TEMPO 1915/1918 RA BKN008

超过4000个机场的气象观测和天气预报(METAR&TAF报告)。

可查询的气象台以黄色和红色小点在地图上表示。

将鼠标移到小点上方,可查看气象台名称。

然后点击查看天气观测和预报。

如需切换地图:点击带黑十字的绿色按钮放大地图;点击带横线的绿色按钮缩小地图;或者点击绿色箭头查看邻近地区的地图。


METAR-TAF: